LFPB 301030Z AUTO 09010KT 060V120 CAVOK 23/06 Q1020

ElémentsDécodage
LFPB Station météo située sur l'aérodrome de PARIS Le-Bourget
301030Z émis le 30 du mois à 10h30 UTC
AUTO Bulletin édité par un automate
09010KT vent du 090°, 10 noeuds
060V120 vent de direction variable entre 060° et 120°
CAVOK Ceiling And Visibility OK
- Visibilité de 10 Km ou plus
- Pas de nuage au-dessous de 1500m ou au-dessous de l'altitude minimale du secteur la plus élevée (si>1500m) et absence de CB
- pas de temps présent significatif
23/06 température 23°C, point de rosée 06°C
 soit une humidité relative de 33%
Q1020 la pression au niveau de la mer (QNH) est de 1020 hPa